createdAt,value
2018-11-14T00:01:45.463Z,100.00
2018-11-14T00:04:14.710Z,100.00
2018-11-14T00:06:43.921Z,100.00
2018-11-14T00:09:13.222Z,100.00
2018-11-14T00:11:42.612Z,100.00
2018-11-14T00:14:12.273Z,100.00
2018-11-14T00:16:43.261Z,100.00
2018-11-14T00:19:12.455Z,100.00
2018-11-14T00:21:41.672Z,100.00
2018-11-14T00:24:11.201Z,100.00
2018-11-14T00:26:40.796Z,99.34
2018-11-14T00:29:12.104Z,99.80
2018-11-14T00:31:42.360Z,99.54
2018-11-14T00:34:11.673Z,99.62
2018-11-14T00:36:40.937Z,98.65
2018-11-14T00:39:12.984Z,98.69
2018-11-14T00:41:44.102Z,98.52
2018-11-14T00:44:13.855Z,99.22
2018-11-14T00:46:43.049Z,99.84
2018-11-14T00:49:12.297Z,99.60
2018-11-14T00:51:41.542Z,99.39
2018-11-14T00:54:11.354Z,99.09
2018-11-14T00:56:42.362Z,98.28
2018-11-14T00:59:11.639Z,98.57
2018-11-14T01:01:41.020Z,98.64
2018-11-14T01:04:10.364Z,98.92
2018-11-14T01:06:39.805Z,99.31
2018-11-14T01:09:12.255Z,99.25
2018-11-14T01:11:42.068Z,99.34
2018-11-14T01:14:11.552Z,99.47
2018-11-14T01:16:41.200Z,98.63
2018-11-14T01:19:10.979Z,99.02
2018-11-14T01:21:40.507Z,100.00
2018-11-14T01:24:09.711Z,100.00
2018-11-14T01:26:40.376Z,100.00
2018-11-14T01:29:10.668Z,100.00
2018-11-14T01:31:40.108Z,100.00
2018-11-14T01:34:09.304Z,100.00
2018-11-14T01:36:38.801Z,100.00
2018-11-14T01:39:11.546Z,100.00
2018-11-14T01:41:42.238Z,99.91
2018-11-14T01:44:11.541Z,100.00
2018-11-14T01:46:40.954Z,100.00
2018-11-14T01:49:10.951Z,100.00
2018-11-14T01:51:40.263Z,100.00
2018-11-14T01:54:10.242Z,100.00
2018-11-14T01:56:41.522Z,100.00
2018-11-14T01:59:10.759Z,100.00
2018-11-14T02:01:40.021Z,100.00
2018-11-14T02:04:09.267Z,100.00
2018-11-14T02:06:38.512Z,100.00
2018-11-14T02:09:10.498Z,99.48
2018-11-14T02:11:40.608Z,99.60
2018-11-14T02:14:10.567Z,99.08
2018-11-14T02:16:39.964Z,100.00
2018-11-14T02:19:09.321Z,100.00
2018-11-14T02:21:39.675Z,100.00
2018-11-14T02:24:11.340Z,100.00
2018-11-14T02:26:40.486Z,100.00
2018-11-14T02:29:09.801Z,100.00
2018-11-14T02:31:39.276Z,100.00
2018-11-14T02:34:08.486Z,100.00
2018-11-14T02:36:37.748Z,100.00
2018-11-14T02:39:08.033Z,100.00
2018-11-14T02:41:37.336Z,100.00
2018-11-14T02:44:07.929Z,99.85
2018-11-14T02:46:39.111Z,100.00
2018-11-14T02:49:08.374Z,100.00
2018-11-14T02:51:37.717Z,100.00
2018-11-14T02:54:07.077Z,100.00
2018-11-14T02:56:36.427Z,99.65
2018-11-14T02:59:08.268Z,100.00
2018-11-14T03:01:38.059Z,100.00
2018-11-14T03:04:07.335Z,100.00
2018-11-14T03:06:36.685Z,100.00
2018-11-14T03:09:07.538Z,100.00
2018-11-14T03:11:36.812Z,100.00
2018-11-14T03:14:07.092Z,100.00
2018-11-14T03:16:38.285Z,100.00
2018-11-14T03:19:07.464Z,100.00
2018-11-14T03:21:36.646Z,100.00
2018-11-14T03:24:06.196Z,100.00
2018-11-14T03:26:35.480Z,100.00
2018-11-14T03:29:05.855Z,100.00
2018-11-14T03:31:37.474Z,100.00
2018-11-14T03:34:07.002Z,100.00
2018-11-14T03:36:36.335Z,100.00
2018-11-14T03:39:07.618Z,100.00
2018-11-14T03:41:36.871Z,100.00
2018-11-14T03:44:08.966Z,100.00
2018-11-14T03:46:38.773Z,100.00
2018-11-14T03:49:08.097Z,100.00
2018-11-14T03:51:37.388Z,100.00
2018-11-14T03:54:06.698Z,100.00
2018-11-14T03:56:36.136Z,100.00
2018-11-14T03:59:08.589Z,100.00
2018-11-14T04:01:37.865Z,100.00
2018-11-14T04:04:07.235Z,100.00
2018-11-14T04:06:36.642Z,100.00
2018-11-14T04:09:08.849Z,100.00
2018-11-14T04:11:40.615Z,100.00
2018-11-14T04:14:11.731Z,100.00
2018-11-14T04:16:41.253Z,100.00
2018-11-14T04:19:10.420Z,100.00
2018-11-14T04:21:42.213Z,100.00
2018-11-14T04:24:11.763Z,100.00
2018-11-14T04:26:41.113Z,100.00
2018-11-14T04:29:10.015Z,100.00
2018-11-14T04:31:38.920Z,100.00
2018-11-14T04:34:07.849Z,100.00
2018-11-14T04:36:38.855Z,100.00
2018-11-14T04:39:10.277Z,100.00
2018-11-14T04:41:39.199Z,100.00
2018-11-14T04:44:08.572Z,100.00
2018-11-14T04:46:37.652Z,100.00
2018-11-14T04:49:07.092Z,100.00
2018-11-14T04:51:38.629Z,100.00
2018-11-14T04:54:09.101Z,100.00
2018-11-14T04:56:38.391Z,100.00
2018-11-14T04:59:08.687Z,100.00
2018-11-14T05:01:37.914Z,100.00
2018-11-14T05:04:07.756Z,100.00
2018-11-14T05:06:39.397Z,100.00
2018-11-14T05:09:10.687Z,100.00
2018-11-14T05:11:39.985Z,100.00
2018-11-14T05:14:09.993Z,100.00
2018-11-14T05:16:40.156Z,100.00
2018-11-14T05:19:12.417Z,100.00
2018-11-14T05:21:42.377Z,100.00
2018-11-14T05:24:11.554Z,100.00
2018-11-14T05:26:40.886Z,100.00
2018-11-14T05:29:10.193Z,100.00
2018-11-14T05:31:39.414Z,100.00
2018-11-14T05:34:11.195Z,100.00
2018-11-14T05:36:40.842Z,100.00
2018-11-14T05:39:11.359Z,100.00
2018-11-14T05:41:40.638Z,100.00
2018-11-14T05:44:10.093Z,100.00
2018-11-14T05:46:40.060Z,100.00
2018-11-14T05:49:11.696Z,100.00
2018-11-14T05:51:41.061Z,100.00
2018-11-14T05:54:10.319Z,100.00
2018-11-14T05:56:39.539Z,100.00
2018-11-14T05:59:08.845Z,100.00
2018-11-14T06:01:38.303Z,100.00
2018-11-14T06:04:08.082Z,100.00
2018-11-14T06:06:37.260Z,100.00
2018-11-14T06:09:09.647Z,100.00
2018-11-14T06:11:40.518Z,100.00
2018-11-14T06:14:11.353Z,100.00
2018-11-14T06:16:40.670Z,100.00
2018-11-14T06:19:10.093Z,100.00
2018-11-14T06:21:39.369Z,100.00
2018-11-14T06:24:09.915Z,100.00
2018-11-14T06:26:40.837Z,100.00
2018-11-14T06:29:10.692Z,100.00
2018-11-14T06:31:39.861Z,100.00
2018-11-14T06:34:09.198Z,100.00
2018-11-14T06:36:40.795Z,100.00
2018-11-14T06:39:11.759Z,100.00
2018-11-14T06:41:41.238Z,100.00
2018-11-14T06:44:10.484Z,100.00
2018-11-14T06:46:40.464Z,100.00
2018-11-14T06:49:10.807Z,100.00
2018-11-14T06:51:41.681Z,100.00
2018-11-14T06:54:11.162Z,100.00
2018-11-14T06:56:40.463Z,100.00
2018-11-14T06:59:09.929Z,100.00
2018-11-14T07:01:39.064Z,100.00
2018-11-14T07:04:10.984Z,100.00
2018-11-14T07:06:40.712Z,100.00
2018-11-14T07:09:11.385Z,100.00
2018-11-14T07:11:40.624Z,100.00
2018-11-14T07:14:09.857Z,100.00
2018-11-14T07:16:39.171Z,100.00
2018-11-14T07:19:09.711Z,100.00
2018-11-14T07:21:40.093Z,100.00
2018-11-14T07:24:09.379Z,100.00
2018-11-14T07:26:38.727Z,100.00
2018-11-14T07:29:08.129Z,100.00
2018-11-14T07:31:37.501Z,100.00
2018-11-14T07:34:09.292Z,100.00
2018-11-14T07:36:38.854Z,100.00
2018-11-14T07:39:09.726Z,100.00
2018-11-14T07:41:40.160Z,100.00
2018-11-14T07:44:10.282Z,100.00
2018-11-14T07:46:42.249Z,100.00
2018-11-14T07:49:13.412Z,100.00
2018-11-14T07:51:42.577Z,100.00
2018-11-14T07:54:11.861Z,100.00
2018-11-14T07:56:41.049Z,100.00
2018-11-14T07:59:10.241Z,100.00
2018-11-14T08:01:40.810Z,100.00
2018-11-14T08:04:11.118Z,100.00
2018-11-14T08:06:40.289Z,100.00
2018-11-14T08:09:09.573Z,100.00
2018-11-14T08:11:38.868Z,100.00
2018-11-14T08:14:08.186Z,100.00
2018-11-14T08:16:39.042Z,100.00
2018-11-14T08:19:09.442Z,100.00
2018-11-14T08:21:38.776Z,100.00
2018-11-14T08:24:08.074Z,100.00
2018-11-14T08:26:37.383Z,100.00
2018-11-14T08:29:06.908Z,100.00
2018-11-14T08:31:36.144Z,100.00
2018-11-14T08:34:06.237Z,100.00
2018-11-14T08:36:37.390Z,100.00
2018-11-14T08:39:08.355Z,100.00
2018-11-14T08:41:37.642Z,100.00
2018-11-14T08:44:06.961Z,100.00
2018-11-14T08:46:36.729Z,100.00
2018-11-14T08:49:08.070Z,99.96
2018-11-14T08:51:38.125Z,98.86
2018-11-14T08:54:07.579Z,97.47
2018-11-14T08:56:36.820Z,96.84
2018-11-14T08:59:06.388Z,95.31
2018-11-14T09:01:36.737Z,95.22
2018-11-14T09:04:07.178Z,94.60
2018-11-14T09:06:36.390Z,95.17
2018-11-14T09:09:07.378Z,93.48
2018-11-14T09:11:36.522Z,92.11
2018-11-14T09:14:07.059Z,92.35
2018-11-14T09:16:37.474Z,91.76
2018-11-14T09:19:06.812Z,90.47
2018-11-14T09:21:36.110Z,91.89
2018-11-14T09:24:05.605Z,90.82
2018-11-14T09:26:35.673Z,89.63
2018-11-14T09:29:06.578Z,88.96
2018-11-14T09:31:35.732Z,87.30
2018-11-14T09:34:06.398Z,87.62
2018-11-14T09:36:35.672Z,85.73
2018-11-14T09:39:05.518Z,85.51
2018-11-14T09:41:35.054Z,83.95
2018-11-14T09:44:04.221Z,84.52
2018-11-14T09:46:33.996Z,82.64
2018-11-14T09:49:03.901Z,80.56
2018-11-14T09:51:33.839Z,81.10
2018-11-14T09:54:04.386Z,79.70
2018-11-14T09:56:33.752Z,79.44
2018-11-14T09:59:02.974Z,77.90
2018-11-14T10:01:32.240Z,77.92
2018-11-14T10:04:01.578Z,77.62
2018-11-14T10:06:32.279Z,75.20
2018-11-14T10:09:01.576Z,75.75
2018-11-14T10:11:33.456Z,74.83
2018-11-14T10:14:02.849Z,75.13
2018-11-14T10:16:32.144Z,73.33
2018-11-14T10:19:02.922Z,73.89
2018-11-14T10:21:32.398Z,71.36
2018-11-14T10:24:01.613Z,72.10
2018-11-14T10:26:30.936Z,70.93
2018-11-14T10:29:00.326Z,71.58
2018-11-14T10:31:29.687Z,70.46
2018-11-14T10:33:58.913Z,68.33
2018-11-14T10:36:28.185Z,68.84
2018-11-14T10:38:58.932Z,66.74
2018-11-14T10:41:29.381Z,67.21
2018-11-14T10:44:00.450Z,64.98
2018-11-14T10:46:29.794Z,64.93
2018-11-14T10:48:58.902Z,64.97
2018-11-14T10:51:29.593Z,63.42
2018-11-14T10:53:58.916Z,62.47
2018-11-14T10:56:28.262Z,61.07
2018-11-14T10:58:57.443Z,62.28
2018-11-14T11:01:32.320Z,60.70
2018-11-14T11:04:07.358Z,57.47
2018-11-14T11:06:42.026Z,58.91
2018-11-14T11:09:18.398Z,59.97
2018-11-14T11:11:52.740Z,59.74
2018-11-14T11:14:27.881Z,58.67
2018-11-14T11:17:03.226Z,59.17
2018-11-14T11:19:34.925Z,59.12
2018-11-14T11:22:04.212Z,58.36
2018-11-14T11:24:35.580Z,60.00
2018-11-14T11:27:05.445Z,58.09
2018-11-14T11:29:34.719Z,57.83
2018-11-14T11:32:04.021Z,57.57
2018-11-14T11:34:33.312Z,56.79
2018-11-14T11:37:03.034Z,55.79
2018-11-14T11:39:34.010Z,56.62
2018-11-14T11:42:03.238Z,56.80
2018-11-14T11:44:32.593Z,56.57
2018-11-14T11:47:01.880Z,56.85
2018-11-14T11:49:31.148Z,55.28
2018-11-14T11:52:00.352Z,57.86
2018-11-14T11:54:29.689Z,58.42
2018-11-14T11:56:59.486Z,60.15
2018-11-14T11:59:30.279Z,59.56
2018-11-14T12:01:59.635Z,59.36
2018-11-14T12:04:28.904Z,59.69
2018-11-14T12:06:58.113Z,60.45
2018-11-14T12:09:27.406Z,59.33
2018-11-14T12:11:57.644Z,58.29
2018-11-14T12:14:26.942Z,58.59
2018-11-14T12:16:56.245Z,59.97
2018-11-14T12:19:25.521Z,58.91
2018-11-14T12:21:56.376Z,58.10
2018-11-14T12:24:26.294Z,58.62
2018-11-14T12:26:55.466Z,59.58
2018-11-14T12:29:24.748Z,59.25
2018-11-14T12:31:54.102Z,56.66
2018-11-14T12:34:23.399Z,56.05
2018-11-14T12:36:52.684Z,55.61
2018-11-14T12:39:21.998Z,55.13
2018-11-14T12:41:52.207Z,53.80
2018-11-14T12:44:22.683Z,57.52
2018-11-14T12:46:51.993Z,56.70
2018-11-14T12:49:22.141Z,56.62
2018-11-14T12:51:51.573Z,56.60
2018-11-14T12:54:20.729Z,55.91
2018-11-14T12:56:50.912Z,55.85
2018-11-14T12:59:22.292Z,55.42
2018-11-14T13:01:51.544Z,54.06
2018-11-14T13:04:20.790Z,53.75
2018-11-14T13:06:50.137Z,53.69
2018-11-14T13:09:19.394Z,53.74
2018-11-14T13:11:50.348Z,51.71
2018-11-14T13:14:20.453Z,53.57
2018-11-14T13:16:49.784Z,54.08
2018-11-14T13:19:19.089Z,54.31
2018-11-14T13:21:48.249Z,53.14
2018-11-14T13:24:17.470Z,50.89
2018-11-14T13:26:49.146Z,50.60
2018-11-14T13:29:18.824Z,50.63
2018-11-14T13:31:48.116Z,50.99
2018-11-14T13:34:17.402Z,53.10
2018-11-14T13:36:46.704Z,53.36
2018-11-14T13:39:16.495Z,54.38
2018-11-14T13:41:47.405Z,53.64
2018-11-14T13:44:16.649Z,53.23
2018-11-14T13:46:45.691Z,55.72
2018-11-14T13:49:17.095Z,55.24
2018-11-14T13:51:46.818Z,54.92
2018-11-14T13:54:16.815Z,53.30
2018-11-14T13:56:45.892Z,52.66
2018-11-14T13:59:15.126Z,53.99
2018-11-14T14:01:45.853Z,54.59
2018-11-14T14:04:15.188Z,53.73
2018-11-14T14:06:44.308Z,54.10
2018-11-14T14:09:14.127Z,54.11
2018-11-14T14:11:43.578Z,53.43
2018-11-14T14:14:15.440Z,54.11
2018-11-14T14:16:44.942Z,53.66
2018-11-14T14:19:17.021Z,54.43
2018-11-14T14:21:46.290Z,54.38
2018-11-14T14:24:15.648Z,54.76
2018-11-14T14:26:44.796Z,55.65
2018-11-14T14:29:14.125Z,54.22
2018-11-14T14:31:43.404Z,53.79
2018-11-14T14:34:13.616Z,52.79
2018-11-14T14:36:44.626Z,53.13
2018-11-14T14:39:14.013Z,50.74
2018-11-14T14:41:43.276Z,49.38
2018-11-14T14:44:12.579Z,47.88
2018-11-14T14:46:41.892Z,47.75
2018-11-14T14:49:12.049Z,47.48
2018-11-14T14:51:43.228Z,47.17
2018-11-14T14:54:13.441Z,47.59
2018-11-14T14:56:42.791Z,49.03
2018-11-14T14:59:13.174Z,49.78
2018-11-14T15:01:43.652Z,51.58
2018-11-14T15:04:12.915Z,53.69
2018-11-14T15:06:42.199Z,55.90
2018-11-14T15:09:11.984Z,58.59
2018-11-14T15:11:41.368Z,60.36
2018-11-14T15:14:10.588Z,61.26
2018-11-14T15:16:39.950Z,62.86
2018-11-14T15:19:11.111Z,63.76
2018-11-14T15:21:40.867Z,65.59
2018-11-14T15:24:10.420Z,67.27
2018-11-14T15:26:40.435Z,68.56
2018-11-14T15:29:09.806Z,69.99
2018-11-14T15:31:40.079Z,71.30
2018-11-14T15:34:12.025Z,71.85
2018-11-14T15:36:41.525Z,73.10
2018-11-14T15:39:12.309Z,75.03
2018-11-14T15:41:43.597Z,75.72
2018-11-14T15:44:12.930Z,76.26
2018-11-14T15:46:42.063Z,77.06
2018-11-14T15:49:12.140Z,78.49
2018-11-14T15:51:41.448Z,79.35
2018-11-14T15:54:10.633Z,79.28
2018-11-14T15:56:39.913Z,81.32
2018-11-14T15:59:10.222Z,81.62
2018-11-14T16:01:39.498Z,81.74
2018-11-14T16:04:08.840Z,81.96
2018-11-14T16:06:38.100Z,82.40
2018-11-14T16:09:11.110Z,82.74
2018-11-14T16:11:42.305Z,83.64
2018-11-14T16:14:12.056Z,84.08
2018-11-14T16:16:41.355Z,84.97
2018-11-14T16:19:10.589Z,84.32
2018-11-14T16:21:39.968Z,84.97
2018-11-14T16:24:11.284Z,85.25
2018-11-14T16:26:40.809Z,86.28
2018-11-14T16:29:10.144Z,87.31
2018-11-14T16:31:39.496Z,87.43
2018-11-14T16:34:10.485Z,88.13
2018-11-14T16:36:39.791Z,87.74
2018-11-14T16:39:12.601Z,87.79
2018-11-14T16:41:42.756Z,87.71
2018-11-14T16:44:11.999Z,88.16
2018-11-14T16:46:41.286Z,88.73
2018-11-14T16:49:10.464Z,88.64
2018-11-14T16:51:39.789Z,89.18
2018-11-14T16:54:09.893Z,88.40
2018-11-14T16:56:40.573Z,88.21
2018-11-14T16:59:11.346Z,88.37
2018-11-14T17:01:40.675Z,88.15
2018-11-14T17:04:09.965Z,88.87
2018-11-14T17:06:40.780Z,89.85
2018-11-14T17:09:12.166Z,89.01
2018-11-14T17:11:41.464Z,90.40
2018-11-14T17:14:11.077Z,90.27
2018-11-14T17:16:42.319Z,91.50
2018-11-14T17:19:11.608Z,90.10
2018-11-14T17:21:40.870Z,90.06
2018-11-14T17:24:11.291Z,91.45
2018-11-14T17:26:40.626Z,91.23
2018-11-14T17:29:10.386Z,92.75
2018-11-14T17:31:40.937Z,91.38
2018-11-14T17:34:10.381Z,92.44
2018-11-14T17:36:39.669Z,92.52
2018-11-14T17:39:12.912Z,93.90
2018-11-14T17:41:42.546Z,93.69
2018-11-14T17:44:11.848Z,92.90
2018-11-14T17:46:41.136Z,94.14
2018-11-14T17:49:10.440Z,94.07
2018-11-14T17:51:39.779Z,94.21
2018-11-14T17:54:08.945Z,93.14
2018-11-14T17:56:39.863Z,94.22
2018-11-14T17:59:09.170Z,94.05
2018-11-14T18:01:38.460Z,94.50
2018-11-14T18:04:08.307Z,93.98
2018-11-14T18:06:39.235Z,94.32
2018-11-14T18:09:11.765Z,94.50
2018-11-14T18:11:41.336Z,94.90
2018-11-14T18:14:10.749Z,94.75
2018-11-14T18:16:40.328Z,95.89
2018-11-14T18:19:11.549Z,95.45
2018-11-14T18:21:41.184Z,95.71
2018-11-14T18:24:10.479Z,95.38
2018-11-14T18:26:39.697Z,96.53
2018-11-14T18:29:09.018Z,96.42
2018-11-14T18:31:39.246Z,95.20
2018-11-14T18:34:08.795Z,95.91
2018-11-14T18:36:37.997Z,96.05
2018-11-14T18:39:10.826Z,95.47
2018-11-14T18:41:40.839Z,96.29
2018-11-14T18:44:10.145Z,95.80
2018-11-14T18:46:39.544Z,96.38
2018-11-14T18:49:10.779Z,95.82
2018-11-14T18:51:40.353Z,96.83
2018-11-14T18:54:09.637Z,95.68
2018-11-14T18:56:38.890Z,96.60
2018-11-14T18:59:08.202Z,96.47
2018-11-14T19:01:37.809Z,96.78
2018-11-14T19:04:09.661Z,96.03
2018-11-14T19:06:40.916Z,96.60
2018-11-14T19:09:10.462Z,95.93
2018-11-14T19:11:39.925Z,96.32
2018-11-14T19:14:09.167Z,96.82
2018-11-14T19:16:38.772Z,96.21
2018-11-14T19:19:10.719Z,96.50
2018-11-14T19:21:40.246Z,95.83
2018-11-14T19:24:09.476Z,95.82
2018-11-14T19:26:38.788Z,96.85
2018-11-14T19:29:08.087Z,95.89
2018-11-14T19:31:38.265Z,95.87
2018-11-14T19:34:08.736Z,95.64
2018-11-14T19:36:37.964Z,96.05
2018-11-14T19:39:12.787Z,95.95
2018-11-14T19:41:43.364Z,95.29
2018-11-14T19:44:12.664Z,95.07
2018-11-14T19:46:41.992Z,95.43
2018-11-14T19:49:13.024Z,95.50
2018-11-14T19:51:42.120Z,96.18
2018-11-14T19:54:11.740Z,95.48
2018-11-14T19:56:41.832Z,96.82
2018-11-14T19:59:11.378Z,97.52
2018-11-14T20:01:40.667Z,97.48
2018-11-14T20:04:09.967Z,98.12
2018-11-14T20:06:39.341Z,97.11
2018-11-14T20:09:12.272Z,97.17
2018-11-14T20:11:41.780Z,96.86
2018-11-14T20:14:10.925Z,97.49
2018-11-14T20:16:40.503Z,97.99
2018-11-14T20:19:09.956Z,97.35
2018-11-14T20:21:41.588Z,97.91
2018-11-14T20:24:10.936Z,99.04
2018-11-14T20:26:40.909Z,98.01
2018-11-14T20:29:10.235Z,98.78
2018-11-14T20:31:41.432Z,98.37
2018-11-14T20:34:11.582Z,98.67
2018-11-14T20:36:43.048Z,98.69
2018-11-14T20:39:13.411Z,98.10
2018-11-14T20:41:42.797Z,98.36
2018-11-14T20:44:12.060Z,98.79
2018-11-14T20:46:41.464Z,99.10
2018-11-14T20:49:10.688Z,98.66
2018-11-14T20:51:40.837Z,98.41
2018-11-14T20:54:11.624Z,99.14
2018-11-14T20:56:41.197Z,98.89
2018-11-14T20:59:10.550Z,99.16
2018-11-14T21:01:39.948Z,99.51
2018-11-14T21:04:09.151Z,99.26
2018-11-14T21:06:41.694Z,98.58
2018-11-14T21:09:11.860Z,98.94
2018-11-14T21:11:41.236Z,99.63
2018-11-14T21:14:10.575Z,99.36
2018-11-14T21:16:39.916Z,98.94
2018-11-14T21:19:09.204Z,99.77
2018-11-14T21:21:39.390Z,99.56
2018-11-14T21:24:09.053Z,100.00
2018-11-14T21:26:38.385Z,99.64
2018-11-14T21:29:07.659Z,100.00
2018-11-14T21:31:37.304Z,99.82
2018-11-14T21:34:06.963Z,100.00
2018-11-14T21:36:36.334Z,99.85
2018-11-14T21:39:11.052Z,100.00
2018-11-14T21:41:40.273Z,99.73
2018-11-14T21:44:09.532Z,100.00
2018-11-14T21:46:39.226Z,100.00
2018-11-14T21:49:12.991Z,100.00
2018-11-14T21:51:43.433Z,100.00
2018-11-14T21:54:14.692Z,100.00
2018-11-14T21:56:44.000Z,100.00
2018-11-14T21:59:13.304Z,100.00
2018-11-14T22:01:43.176Z,100.00
2018-11-14T22:07:05.161Z,100.00
2018-11-14T22:09:37.030Z,100.00
2018-11-14T22:12:06.322Z,100.00
2018-11-14T22:14:35.562Z,100.00
2018-11-14T22:17:04.880Z,100.00
2018-11-14T22:19:34.202Z,100.00
2018-11-14T22:22:04.261Z,100.00
2018-11-14T22:24:35.351Z,100.00
2018-11-14T22:27:04.843Z,100.00
2018-11-14T22:29:34.132Z,100.00
2018-11-14T22:32:03.259Z,100.00
2018-11-14T22:34:32.548Z,100.00
2018-11-14T22:37:01.975Z,100.00
2018-11-14T22:39:31.290Z,100.00
2018-11-14T22:42:02.834Z,100.00
2018-11-14T22:44:32.240Z,100.00
2018-11-14T22:47:01.381Z,100.00
2018-11-14T22:49:31.634Z,100.00
2018-11-14T22:52:00.811Z,100.00
2018-11-14T22:54:30.169Z,100.00
2018-11-14T22:56:59.546Z,100.00
2018-11-14T22:59:28.757Z,100.00
2018-11-14T23:01:58.702Z,100.00
2018-11-14T23:04:29.054Z,100.00
2018-11-14T23:06:59.076Z,100.00
2018-11-14T23:09:28.515Z,100.00
2018-11-14T23:11:57.771Z,100.00
2018-11-14T23:14:27.008Z,100.00
2018-11-14T23:16:57.229Z,100.00
2018-11-14T23:19:28.968Z,100.00
2018-11-14T23:21:58.338Z,100.00
2018-11-14T23:24:29.274Z,100.00
2018-11-14T23:26:58.588Z,100.00
2018-11-14T23:29:27.887Z,100.00
2018-11-14T23:31:57.186Z,100.00
2018-11-14T23:34:26.449Z,100.00
2018-11-14T23:36:58.712Z,100.00
2018-11-14T23:39:27.884Z,100.00
2018-11-14T23:41:57.065Z,100.00
2018-11-14T23:44:26.272Z,100.00
2018-11-14T23:46:55.598Z,100.00
2018-11-14T23:49:24.752Z,100.00
2018-11-14T23:51:54.044Z,100.00
2018-11-14T23:54:24.634Z,100.00
2018-11-14T23:56:54.410Z,100.00
2018-11-14T23:59:26.356Z,100.00
